sensor_id;sensor_type;location;lat;lon;timestamp;P1;durP1;ratioP1;P2;durP2;ratioP2
14241;SDS011;7205;50.864;12.766;2023-03-30T00:00:32;2.17;;;2.03;;
14241;SDS011;7205;50.864;12.766;2023-03-30T00:02:59;2.93;;;2.10;;
14241;SDS011;7205;50.864;12.766;2023-03-30T00:05:28;2.27;;;2.07;;
14241;SDS011;7205;50.864;12.766;2023-03-30T00:07:55;2.43;;;2.23;;
14241;SDS011;7205;50.864;12.766;2023-03-30T00:10:23;2.37;;;1.90;;
14241;SDS011;7205;50.864;12.766;2023-03-30T00:12:51;3.87;;;2.53;;
14241;SDS011;7205;50.864;12.766;2023-03-30T00:15:18;2.63;;;2.10;;
14241;SDS011;7205;50.864;12.766;2023-03-30T00:17:48;2.70;;;2.20;;
14241;SDS011;7205;50.864;12.766;2023-03-30T00:20:19;2.53;;;2.07;;
14241;SDS011;7205;50.864;12.766;2023-03-30T00:22:48;2.73;;;2.33;;
14241;SDS011;7205;50.864;12.766;2023-03-30T00:25:15;2.57;;;2.10;;
14241;SDS011;7205;50.864;12.766;2023-03-30T00:27:42;3.20;;;2.30;;
14241;SDS011;7205;50.864;12.766;2023-03-30T00:30:11;3.73;;;1.97;;
14241;SDS011;7205;50.864;12.766;2023-03-30T00:32:39;2.10;;;1.90;;
14241;SDS011;7205;50.864;12.766;2023-03-30T00:35:07;2.07;;;1.90;;
14241;SDS011;7205;50.864;12.766;2023-03-30T00:37:34;3.40;;;2.03;;
14241;SDS011;7205;50.864;12.766;2023-03-30T00:40:03;2.70;;;1.80;;
14241;SDS011;7205;50.864;12.766;2023-03-30T00:42:32;3.43;;;2.00;;
14241;SDS011;7205;50.864;12.766;2023-03-30T00:45:08;1.97;;;1.80;;
14241;SDS011;7205;50.864;12.766;2023-03-30T00:47:42;3.13;;;2.07;;
14241;SDS011;7205;50.864;12.766;2023-03-30T00:50:13;3.47;;;2.10;;
14241;SDS011;7205;50.864;12.766;2023-03-30T00:52:41;2.10;;;1.70;;
14241;SDS011;7205;50.864;12.766;2023-03-30T00:55:11;2.10;;;1.63;;
14241;SDS011;7205;50.864;12.766;2023-03-30T00:57:39;1.50;;;1.40;;
14241;SDS011;7205;50.864;12.766;2023-03-30T01:00:12;3.73;;;1.90;;
14241;SDS011;7205;50.864;12.766;2023-03-30T01:02:40;2.10;;;1.90;;
14241;SDS011;7205;50.864;12.766;2023-03-30T01:05:10;1.80;;;1.70;;
14241;SDS011;7205;50.864;12.766;2023-03-30T01:07:37;2.63;;;1.77;;
14241;SDS011;7205;50.864;12.766;2023-03-30T01:10:07;2.40;;;1.67;;
14241;SDS011;7205;50.864;12.766;2023-03-30T01:12:36;1.70;;;1.60;;
14241;SDS011;7205;50.864;12.766;2023-03-30T01:15:05;2.57;;;1.60;;
14241;SDS011;7205;50.864;12.766;2023-03-30T01:17:34;1.63;;;1.50;;
14241;SDS011;7205;50.864;12.766;2023-03-30T01:23:26;2.07;;;1.50;;
14241;SDS011;7205;50.864;12.766;2023-03-30T01:26:20;2.20;;;1.50;;
14241;SDS011;7205;50.864;12.766;2023-03-30T01:29:06;3.10;;;2.00;;
14241;SDS011;7205;50.864;12.766;2023-03-30T01:34:53;5.33;;;1.33;;
14241;SDS011;7205;50.864;12.766;2023-03-30T01:40:37;2.90;;;1.40;;
14241;SDS011;7205;50.864;12.766;2023-03-30T01:43:09;4.13;;;1.50;;
14241;SDS011;7205;50.864;12.766;2023-03-30T01:45:42;1.90;;;1.10;;
14241;SDS011;7205;50.864;12.766;2023-03-30T01:48:12;2.93;;;1.70;;
14241;SDS011;7205;50.864;12.766;2023-03-30T01:50:45;2.83;;;1.07;;
14241;SDS011;7205;50.864;12.766;2023-03-30T01:53:17;1.97;;;1.23;;
14241;SDS011;7205;50.864;12.766;2023-03-30T01:55:54;2.27;;;1.13;;
14241;SDS011;7205;50.864;12.766;2023-03-30T01:58:24;1.67;;;1.00;;
14241;SDS011;7205;50.864;12.766;2023-03-30T02:00:57;1.70;;;1.23;;
14241;SDS011;7205;50.864;12.766;2023-03-30T02:03:27;2.90;;;1.70;;
14241;SDS011;7205;50.864;12.766;2023-03-30T02:05:58;2.63;;;1.10;;
14241;SDS011;7205;50.864;12.766;2023-03-30T02:08:30;2.83;;;1.20;;
14241;SDS011;7205;50.864;12.766;2023-03-30T02:11:03;5.03;;;1.23;;
14241;SDS011;7205;50.864;12.766;2023-03-30T02:13:30;2.73;;;1.10;;
14241;SDS011;7205;50.864;12.766;2023-03-30T02:16:01;3.70;;;1.37;;
14241;SDS011;7205;50.864;12.766;2023-03-30T02:18:36;4.07;;;1.50;;
14241;SDS011;7205;50.864;12.766;2023-03-30T02:21:03;4.13;;;1.43;;
14241;SDS011;7205;50.864;12.766;2023-03-30T02:23:31;2.33;;;1.20;;
14241;SDS011;7205;50.864;12.766;2023-03-30T02:26:03;2.70;;;1.10;;
14241;SDS011;7205;50.864;12.766;2023-03-30T02:28:33;2.50;;;1.23;;
14241;SDS011;7205;50.864;12.766;2023-03-30T02:31:00;3.17;;;1.30;;
14241;SDS011;7205;50.864;12.766;2023-03-30T02:33:28;1.47;;;1.10;;
14241;SDS011;7205;50.864;12.766;2023-03-30T02:36:07;1.70;;;1.23;;
14241;SDS011;7205;50.864;12.766;2023-03-30T02:44:53;1.90;;;1.30;;
14241;SDS011;7205;50.864;12.766;2023-03-30T02:47:30;1.57;;;1.07;;
14241;SDS011;7205;50.864;12.766;2023-03-30T02:50:08;2.77;;;1.17;;
14241;SDS011;7205;50.864;12.766;2023-03-30T02:52:44;3.83;;;1.20;;
14241;SDS011;7205;50.864;12.766;2023-03-30T02:55:22;1.13;;;0.90;;
14241;SDS011;7205;50.864;12.766;2023-03-30T02:58:13;1.90;;;1.27;;
14241;SDS011;7205;50.864;12.766;2023-03-30T03:01:03;1.97;;;1.20;;
14241;SDS011;7205;50.864;12.766;2023-03-30T03:03:46;2.03;;;1.10;;
14241;SDS011;7205;50.864;12.766;2023-03-30T03:06:17;1.83;;;1.17;;
14241;SDS011;7205;50.864;12.766;2023-03-30T03:08:51;4.20;;;1.37;;
14241;SDS011;7205;50.864;12.766;2023-03-30T03:11:24;3.17;;;1.53;;
14241;SDS011;7205;50.864;12.766;2023-03-30T03:13:52;1.67;;;1.33;;
14241;SDS011;7205;50.864;12.766;2023-03-30T03:16:22;2.33;;;1.33;;
14241;SDS011;7205;50.864;12.766;2023-03-30T03:19:07;2.67;;;1.30;;
14241;SDS011;7205;50.864;12.766;2023-03-30T03:21:34;3.13;;;1.33;;
14241;SDS011;7205;50.864;12.766;2023-03-30T03:24:02;4.03;;;1.47;;
14241;SDS011;7205;50.864;12.766;2023-03-30T03:26:49;3.00;;;1.73;;
14241;SDS011;7205;50.864;12.766;2023-03-30T03:29:17;1.80;;;1.53;;
14241;SDS011;7205;50.864;12.766;2023-03-30T03:31:45;3.27;;;1.37;;
14241;SDS011;7205;50.864;12.766;2023-03-30T03:34:12;2.47;;;1.43;;
14241;SDS011;7205;50.864;12.766;2023-03-30T03:36:56;1.60;;;1.40;;
14241;SDS011;7205;50.864;12.766;2023-03-30T03:39:25;4.50;;;1.60;;
14241;SDS011;7205;50.864;12.766;2023-03-30T03:41:59;3.17;;;1.37;;
14241;SDS011;7205;50.864;12.766;2023-03-30T03:44:26;2.80;;;1.60;;
14241;SDS011;7205;50.864;12.766;2023-03-30T03:46:55;4.23;;;1.30;;
14241;SDS011;7205;50.864;12.766;2023-03-30T03:49:22;2.50;;;1.63;;
14241;SDS011;7205;50.864;12.766;2023-03-30T03:51:49;2.97;;;1.37;;
14241;SDS011;7205;50.864;12.766;2023-03-30T03:54:16;3.10;;;1.40;;
14241;SDS011;7205;50.864;12.766;2023-03-30T03:56:45;3.07;;;1.60;;
14241;SDS011;7205;50.864;12.766;2023-03-30T03:59:13;3.50;;;1.47;;
14241;SDS011;7205;50.864;12.766;2023-03-30T04:01:40;5.93;;;1.60;;
14241;SDS011;7205;50.864;12.766;2023-03-30T04:04:10;3.30;;;1.50;;
14241;SDS011;7205;50.864;12.766;2023-03-30T04:06:38;3.37;;;1.40;;
14241;SDS011;7205;50.864;12.766;2023-03-30T04:09:06;6.27;;;1.90;;
14241;SDS011;7205;50.864;12.766;2023-03-30T04:11:58;3.07;;;1.80;;
14241;SDS011;7205;50.864;12.766;2023-03-30T04:14:37;2.23;;;1.50;;
14241;SDS011;7205;50.864;12.766;2023-03-30T04:17:14;7.03;;;1.70;;
14241;SDS011;7205;50.864;12.766;2023-03-30T04:20:01;4.33;;;2.40;;
14241;SDS011;7205;50.864;12.766;2023-03-30T04:22:56;3.20;;;2.77;;
14241;SDS011;7205;50.864;12.766;2023-03-30T04:25:44;6.57;;;2.00;;
14241;SDS011;7205;50.864;12.766;2023-03-30T04:28:19;3.50;;;1.90;;
14241;SDS011;7205;50.864;12.766;2023-03-30T04:31:07;7.03;;;1.80;;
14241;SDS011;7205;50.864;12.766;2023-03-30T04:33:55;4.23;;;2.20;;
14241;SDS011;7205;50.864;12.766;2023-03-30T04:36:43;5.07;;;2.20;;
14241;SDS011;7205;50.864;12.766;2023-03-30T04:39:28;2.67;;;1.80;;
14241;SDS011;7205;50.864;12.766;2023-03-30T04:42:20;5.07;;;1.53;;
14241;SDS011;7205;50.864;12.766;2023-03-30T04:44:58;7.03;;;2.10;;
14241;SDS011;7205;50.864;12.766;2023-03-30T04:48:01;5.30;;;1.90;;
14241;SDS011;7205;50.864;12.766;2023-03-30T04:50:43;4.83;;;2.17;;
14241;SDS011;7205;50.864;12.766;2023-03-30T04:53:39;2.83;;;1.77;;
14241;SDS011;7205;50.864;12.766;2023-03-30T04:56:24;2.73;;;1.70;;
14241;SDS011;7205;50.864;12.766;2023-03-30T04:59:10;3.23;;;1.93;;
14241;SDS011;7205;50.864;12.766;2023-03-30T05:02:03;3.80;;;1.53;;
14241;SDS011;7205;50.864;12.766;2023-03-30T05:04:53;3.73;;;2.07;;
14241;SDS011;7205;50.864;12.766;2023-03-30T05:07:38;5.57;;;2.50;;
14241;SDS011;7205;50.864;12.766;2023-03-30T05:10:21;2.00;;;1.60;;
14241;SDS011;7205;50.864;12.766;2023-03-30T05:13:15;4.43;;;2.33;;
14241;SDS011;7205;50.864;12.766;2023-03-30T05:15:52;4.47;;;1.80;;
14241;SDS011;7205;50.864;12.766;2023-03-30T05:18:38;2.50;;;1.80;;
14241;SDS011;7205;50.864;12.766;2023-03-30T05:21:40;4.70;;;1.73;;
14241;SDS011;7205;50.864;12.766;2023-03-30T05:24:21;4.17;;;2.17;;
14241;SDS011;7205;50.864;12.766;2023-03-30T05:27:08;5.30;;;2.03;;
14241;SDS011;7205;50.864;12.766;2023-03-30T05:29:56;6.17;;;3.30;;
14241;SDS011;7205;50.864;12.766;2023-03-30T05:32:25;3.30;;;1.73;;
14241;SDS011;7205;50.864;12.766;2023-03-30T05:35:09;3.60;;;1.90;;
14241;SDS011;7205;50.864;12.766;2023-03-30T05:37:59;4.50;;;1.30;;
14241;SDS011;7205;50.864;12.766;2023-03-30T05:40:50;5.13;;;1.70;;
14241;SDS011;7205;50.864;12.766;2023-03-30T05:43:37;4.27;;;1.53;;
14241;SDS011;7205;50.864;12.766;2023-03-30T05:46:22;7.43;;;1.60;;
14241;SDS011;7205;50.864;12.766;2023-03-30T05:48:57;2.97;;;1.73;;
14241;SDS011;7205;50.864;12.766;2023-03-30T05:51:30;4.97;;;1.60;;
14241;SDS011;7205;50.864;12.766;2023-03-30T05:54:17;2.50;;;1.90;;
14241;SDS011;7205;50.864;12.766;2023-03-30T05:57:10;4.40;;;1.60;;
14241;SDS011;7205;50.864;12.766;2023-03-30T05:59:46;5.67;;;1.50;;
14241;SDS011;7205;50.864;12.766;2023-03-30T06:02:31;5.77;;;2.10;;
14241;SDS011;7205;50.864;12.766;2023-03-30T06:05:04;3.57;;;1.50;;
14241;SDS011;7205;50.864;12.766;2023-03-30T06:07:33;4.07;;;1.87;;
14241;SDS011;7205;50.864;12.766;2023-03-30T06:09:59;3.50;;;1.57;;
14241;SDS011;7205;50.864;12.766;2023-03-30T06:12:27;5.43;;;1.90;;
14241;SDS011;7205;50.864;12.766;2023-03-30T06:14:57;7.60;;;1.83;;
14241;SDS011;7205;50.864;12.766;2023-03-30T06:17:41;6.07;;;1.90;;
14241;SDS011;7205;50.864;12.766;2023-03-30T06:20:08;9.40;;;2.50;;
14241;SDS011;7205;50.864;12.766;2023-03-30T06:22:39;6.07;;;1.90;;
14241;SDS011;7205;50.864;12.766;2023-03-30T06:25:17;5.37;;;2.13;;
14241;SDS011;7205;50.864;12.766;2023-03-30T06:27:45;6.63;;;2.33;;
14241;SDS011;7205;50.864;12.766;2023-03-30T06:30:14;7.73;;;2.20;;
14241;SDS011;7205;50.864;12.766;2023-03-30T06:32:46;5.53;;;2.23;;
14241;SDS011;7205;50.864;12.766;2023-03-30T06:35:21;8.53;;;2.57;;
14241;SDS011;7205;50.864;12.766;2023-03-30T06:37:50;5.27;;;2.50;;
14241;SDS011;7205;50.864;12.766;2023-03-30T06:40:16;5.93;;;1.80;;
14241;SDS011;7205;50.864;12.766;2023-03-30T06:42:47;5.63;;;1.90;;
14241;SDS011;7205;50.864;12.766;2023-03-30T06:45:41;7.40;;;2.77;;
14241;SDS011;7205;50.864;12.766;2023-03-30T06:48:08;7.63;;;2.33;;
14241;SDS011;7205;50.864;12.766;2023-03-30T06:50:38;4.93;;;2.03;;
14241;SDS011;7205;50.864;12.766;2023-03-30T06:53:11;4.33;;;2.27;;
14241;SDS011;7205;50.864;12.766;2023-03-30T06:55:41;5.37;;;2.30;;
14241;SDS011;7205;50.864;12.766;2023-03-30T06:58:14;4.03;;;2.37;;
14241;SDS011;7205;50.864;12.766;2023-03-30T07:00:42;7.63;;;2.17;;
14241;SDS011;7205;50.864;12.766;2023-03-30T07:03:38;4.40;;;2.20;;
14241;SDS011;7205;50.864;12.766;2023-03-30T07:06:14;5.53;;;1.83;;
14241;SDS011;7205;50.864;12.766;2023-03-30T07:08:42;4.73;;;2.20;;
14241;SDS011;7205;50.864;12.766;2023-03-30T07:11:12;3.93;;;2.00;;
14241;SDS011;7205;50.864;12.766;2023-03-30T07:13:39;5.07;;;1.90;;
14241;SDS011;7205;50.864;12.766;2023-03-30T07:16:08;5.53;;;1.83;;
14241;SDS011;7205;50.864;12.766;2023-03-30T07:18:35;7.13;;;1.93;;
14241;SDS011;7205;50.864;12.766;2023-03-30T07:21:03;3.50;;;1.90;;
14241;SDS011;7205;50.864;12.766;2023-03-30T07:23:39;7.27;;;2.23;;
14241;SDS011;7205;50.864;12.766;2023-03-30T07:26:08;3.63;;;1.90;;
14241;SDS011;7205;50.864;12.766;2023-03-30T07:28:41;2.87;;;2.07;;
14241;SDS011;7205;50.864;12.766;2023-03-30T07:31:11;3.00;;;1.80;;
14241;SDS011;7205;50.864;12.766;2023-03-30T07:33:41;5.03;;;2.10;;
14241;SDS011;7205;50.864;12.766;2023-03-30T07:36:11;5.40;;;2.00;;
14241;SDS011;7205;50.864;12.766;2023-03-30T07:38:38;3.10;;;1.80;;
14241;SDS011;7205;50.864;12.766;2023-03-30T07:41:06;6.60;;;2.13;;
14241;SDS011;7205;50.864;12.766;2023-03-30T07:43:34;6.73;;;2.63;;
14241;SDS011;7205;50.864;12.766;2023-03-30T07:46:02;3.03;;;1.97;;
14241;SDS011;7205;50.864;12.766;2023-03-30T07:48:36;8.13;;;2.20;;
14241;SDS011;7205;50.864;12.766;2023-03-30T07:51:03;5.10;;;1.77;;
14241;SDS011;7205;50.864;12.766;2023-03-30T07:53:35;4.17;;;1.90;;
14241;SDS011;7205;50.864;12.766;2023-03-30T07:56:10;4.77;;;2.00;;
14241;SDS011;7205;50.864;12.766;2023-03-30T07:58:43;8.83;;;2.10;;
14241;SDS011;7205;50.864;12.766;2023-03-30T08:01:14;6.90;;;2.20;;
14241;SDS011;7205;50.864;12.766;2023-03-30T08:04:17;9.07;;;2.30;;
14241;SDS011;7205;50.864;12.766;2023-03-30T08:06:45;5.30;;;2.07;;
14241;SDS011;7205;50.864;12.766;2023-03-30T08:09:12;4.23;;;2.13;;
14241;SDS011;7205;50.864;12.766;2023-03-30T08:11:38;5.20;;;2.17;;
14241;SDS011;7205;50.864;12.766;2023-03-30T08:14:06;5.10;;;1.90;;
14241;SDS011;7205;50.864;12.766;2023-03-30T08:16:33;5.83;;;2.10;;
14241;SDS011;7205;50.864;12.766;2023-03-30T08:19:00;6.37;;;2.00;;
14241;SDS011;7205;50.864;12.766;2023-03-30T08:21:28;9.30;;;2.43;;
14241;SDS011;7205;50.864;12.766;2023-03-30T08:23:55;5.70;;;2.00;;
14241;SDS011;7205;50.864;12.766;2023-03-30T08:26:23;7.20;;;1.83;;
14241;SDS011;7205;50.864;12.766;2023-03-30T08:28:50;5.00;;;1.97;;
14241;SDS011;7205;50.864;12.766;2023-03-30T08:31:17;6.80;;;2.67;;
14241;SDS011;7205;50.864;12.766;2023-03-30T08:33:45;5.83;;;2.13;;
14241;SDS011;7205;50.864;12.766;2023-03-30T08:36:12;5.77;;;2.47;;
14241;SDS011;7205;50.864;12.766;2023-03-30T08:38:42;8.87;;;1.93;;
14241;SDS011;7205;50.864;12.766;2023-03-30T08:41:35;3.07;;;1.87;;
14241;SDS011;7205;50.864;12.766;2023-03-30T08:44:30;8.73;;;4.17;;
14241;SDS011;7205;50.864;12.766;2023-03-30T08:46:59;5.50;;;2.03;;
14241;SDS011;7205;50.864;12.766;2023-03-30T08:49:28;7.17;;;3.97;;
14241;SDS011;7205;50.864;12.766;2023-03-30T08:52:01;5.43;;;3.60;;
14241;SDS011;7205;50.864;12.766;2023-03-30T08:54:31;8.00;;;2.83;;
14241;SDS011;7205;50.864;12.766;2023-03-30T08:56:59;5.73;;;2.43;;
14241;SDS011;7205;50.864;12.766;2023-03-30T08:59:35;6.77;;;2.40;;
14241;SDS011;7205;50.864;12.766;2023-03-30T09:02:16;8.10;;;2.40;;
14241;SDS011;7205;50.864;12.766;2023-03-30T09:04:56;6.50;;;2.83;;
14241;SDS011;7205;50.864;12.766;2023-03-30T09:07:29;9.27;;;3.57;;
14241;SDS011;7205;50.864;12.766;2023-03-30T09:10:00;5.00;;;2.57;;
14241;SDS011;7205;50.864;12.766;2023-03-30T09:12:31;5.10;;;2.67;;
14241;SDS011;7205;50.864;12.766;2023-03-30T09:15:07;5.30;;;2.77;;
14241;SDS011;7205;50.864;12.766;2023-03-30T09:17:39;4.43;;;2.63;;
14241;SDS011;7205;50.864;12.766;2023-03-30T09:20:10;4.60;;;2.10;;
14241;SDS011;7205;50.864;12.766;2023-03-30T09:22:41;5.30;;;2.20;;
14241;SDS011;7205;50.864;12.766;2023-03-30T09:25:15;5.53;;;2.57;;
14241;SDS011;7205;50.864;12.766;2023-03-30T09:27:49;7.17;;;2.20;;
14241;SDS011;7205;50.864;12.766;2023-03-30T09:30:25;8.13;;;2.63;;
14241;SDS011;7205;50.864;12.766;2023-03-30T09:32:58;5.10;;;2.07;;
14241;SDS011;7205;50.864;12.766;2023-03-30T09:35:29;4.17;;;2.30;;
14241;SDS011;7205;50.864;12.766;2023-03-30T09:38:02;5.97;;;2.60;;
14241;SDS011;7205;50.864;12.766;2023-03-30T09:40:40;7.13;;;2.27;;
14241;SDS011;7205;50.864;12.766;2023-03-30T09:43:18;5.33;;;2.23;;
14241;SDS011;7205;50.864;12.766;2023-03-30T09:45:53;7.20;;;1.93;;
14241;SDS011;7205;50.864;12.766;2023-03-30T09:48:22;5.83;;;1.73;;
14241;SDS011;7205;50.864;12.766;2023-03-30T09:50:48;5.50;;;1.77;;
14241;SDS011;7205;50.864;12.766;2023-03-30T09:53:19;5.57;;;2.30;;
14241;SDS011;7205;50.864;12.766;2023-03-30T09:55:56;3.93;;;2.23;;
14241;SDS011;7205;50.864;12.766;2023-03-30T09:58:25;4.87;;;1.93;;
14241;SDS011;7205;50.864;12.766;2023-03-30T10:00:59;5.83;;;2.00;;
14241;SDS011;7205;50.864;12.766;2023-03-30T10:03:29;4.33;;;1.73;;
14241;SDS011;7205;50.864;12.766;2023-03-30T10:06:00;3.57;;;2.10;;
14241;SDS011;7205;50.864;12.766;2023-03-30T10:08:30;4.30;;;1.50;;
14241;SDS011;7205;50.864;12.766;2023-03-30T10:10:58;3.37;;;1.60;;
14241;SDS011;7205;50.864;12.766;2023-03-30T10:13:30;3.73;;;1.60;;
14241;SDS011;7205;50.864;12.766;2023-03-30T10:16:00;2.53;;;1.73;;
14241;SDS011;7205;50.864;12.766;2023-03-30T10:18:33;5.17;;;2.00;;
14241;SDS011;7205;50.864;12.766;2023-03-30T10:21:05;4.50;;;1.87;;
14241;SDS011;7205;50.864;12.766;2023-03-30T10:23:41;2.20;;;1.60;;
14241;SDS011;7205;50.864;12.766;2023-03-30T10:26:11;3.90;;;1.90;;
14241;SDS011;7205;50.864;12.766;2023-03-30T10:28:49;2.03;;;1.50;;
14241;SDS011;7205;50.864;12.766;2023-03-30T10:31:17;3.80;;;1.40;;
14241;SDS011;7205;50.864;12.766;2023-03-30T10:33:45;1.93;;;1.30;;
14241;SDS011;7205;50.864;12.766;2023-03-30T10:36:14;3.13;;;1.40;;
14241;SDS011;7205;50.864;12.766;2023-03-30T10:38:42;1.77;;;1.40;;
14241;SDS011;7205;50.864;12.766;2023-03-30T10:41:10;2.77;;;1.20;;
14241;SDS011;7205;50.864;12.766;2023-03-30T10:43:41;1.77;;;1.47;;
14241;SDS011;7205;50.864;12.766;2023-03-30T10:46:10;2.13;;;1.60;;
14241;SDS011;7205;50.864;12.766;2023-03-30T10:51:32;1.27;;;1.20;;
14241;SDS011;7205;50.864;12.766;2023-03-30T10:54:06;3.70;;;1.30;;
14241;SDS011;7205;50.864;12.766;2023-03-30T10:56:44;4.20;;;1.40;;
14241;SDS011;7205;50.864;12.766;2023-03-30T10:59:33;2.33;;;1.40;;
14241;SDS011;7205;50.864;12.766;2023-03-30T11:02:19;3.43;;;1.70;;
14241;SDS011;7205;50.864;12.766;2023-03-30T11:04:55;2.67;;;1.50;;
14241;SDS011;7205;50.864;12.766;2023-03-30T11:07:28;1.90;;;1.40;;
14241;SDS011;7205;50.864;12.766;2023-03-30T11:10:01;1.77;;;1.40;;
14241;SDS011;7205;50.864;12.766;2023-03-30T11:12:34;2.97;;;1.70;;
14241;SDS011;7205;50.864;12.766;2023-03-30T11:15:07;2.43;;;1.70;;
14241;SDS011;7205;50.864;12.766;2023-03-30T11:17:41;1.87;;;1.77;;
14241;SDS011;7205;50.864;12.766;2023-03-30T11:20:18;1.53;;;1.43;;
14241;SDS011;7205;50.864;12.766;2023-03-30T11:22:53;4.27;;;2.43;;
14241;SDS011;7205;50.864;12.766;2023-03-30T11:25:25;3.70;;;2.13;;
14241;SDS011;7205;50.864;12.766;2023-03-30T11:28:00;3.00;;;1.80;;
14241;SDS011;7205;50.864;12.766;2023-03-30T11:30:38;2.60;;;2.10;;
14241;SDS011;7205;50.864;12.766;2023-03-30T11:33:06;2.37;;;2.17;;
14241;SDS011;7205;50.864;12.766;2023-03-30T11:35:45;2.57;;;2.33;;
14241;SDS011;7205;50.864;12.766;2023-03-30T11:38:14;2.37;;;1.90;;
14241;SDS011;7205;50.864;12.766;2023-03-30T11:40:45;2.87;;;2.13;;
14241;SDS011;7205;50.864;12.766;2023-03-30T11:43:14;2.73;;;2.13;;
14241;SDS011;7205;50.864;12.766;2023-03-30T11:45:54;2.67;;;2.47;;
14241;SDS011;7205;50.864;12.766;2023-03-30T11:48:32;2.93;;;2.50;;
14241;SDS011;7205;50.864;12.766;2023-03-30T11:51:14;2.70;;;2.50;;
14241;SDS011;7205;50.864;12.766;2023-03-30T11:53:50;3.67;;;2.87;;
14241;SDS011;7205;50.864;12.766;2023-03-30T11:56:25;3.73;;;2.97;;
14241;SDS011;7205;50.864;12.766;2023-03-30T11:59:00;2.90;;;2.60;;
14241;SDS011;7205;50.864;12.766;2023-03-30T12:01:35;5.47;;;3.03;;
14241;SDS011;7205;50.864;12.766;2023-03-30T12:04:23;5.70;;;2.90;;
14241;SDS011;7205;50.864;12.766;2023-03-30T12:06:54;4.57;;;2.77;;
14241;SDS011;7205;50.864;12.766;2023-03-30T12:09:24;5.23;;;3.20;;
14241;SDS011;7205;50.864;12.766;2023-03-30T12:11:54;3.70;;;2.50;;
14241;SDS011;7205;50.864;12.766;2023-03-30T12:14:31;6.73;;;2.97;;
14241;SDS011;7205;50.864;12.766;2023-03-30T12:17:05;4.67;;;2.87;;
14241;SDS011;7205;50.864;12.766;2023-03-30T12:19:44;3.60;;;2.80;;
14241;SDS011;7205;50.864;12.766;2023-03-30T12:22:18;3.73;;;3.10;;
14241;SDS011;7205;50.864;12.766;2023-03-30T12:24:50;7.87;;;2.90;;
14241;SDS011;7205;50.864;12.766;2023-03-30T12:27:24;2.80;;;2.60;;
14241;SDS011;7205;50.864;12.766;2023-03-30T12:29:53;2.90;;;2.70;;
14241;SDS011;7205;50.864;12.766;2023-03-30T12:32:55;2.90;;;2.60;;
14241;SDS011;7205;50.864;12.766;2023-03-30T12:38:18;3.83;;;2.03;;
14241;SDS011;7205;50.864;12.766;2023-03-30T12:40:51;3.80;;;2.40;;
14241;SDS011;7205;50.864;12.766;2023-03-30T12:43:22;2.37;;;2.10;;
14241;SDS011;7205;50.864;12.766;2023-03-30T12:45:58;3.80;;;2.20;;
14241;SDS011;7205;50.864;12.766;2023-03-30T12:48:40;2.93;;;2.30;;
14241;SDS011;7205;50.864;12.766;2023-03-30T12:51:20;4.27;;;2.20;;
14241;SDS011;7205;50.864;12.766;2023-03-30T12:54:06;2.40;;;2.20;;
14241;SDS011;7205;50.864;12.766;2023-03-30T12:56:56;5.33;;;2.40;;
14241;SDS011;7205;50.864;12.766;2023-03-30T12:59:42;3.87;;;2.10;;
14241;SDS011;7205;50.864;12.766;2023-03-30T13:02:51;3.03;;;2.00;;
14241;SDS011;7205;50.864;12.766;2023-03-30T13:05:28;4.03;;;2.47;;
14241;SDS011;7205;50.864;12.766;2023-03-30T13:08:00;2.30;;;2.10;;
14241;SDS011;7205;50.864;12.766;2023-03-30T13:10:33;4.13;;;2.43;;
14241;SDS011;7205;50.864;12.766;2023-03-30T13:13:15;3.07;;;2.40;;
14241;SDS011;7205;50.864;12.766;2023-03-30T13:15:50;4.57;;;2.20;;
14241;SDS011;7205;50.864;12.766;2023-03-30T13:18:33;2.67;;;1.87;;
14241;SDS011;7205;50.864;12.766;2023-03-30T13:21:15;3.60;;;1.73;;
14241;SDS011;7205;50.864;12.766;2023-03-30T13:23:43;1.70;;;1.60;;
14241;SDS011;7205;50.864;12.766;2023-03-30T13:26:25;1.97;;;1.80;;
14241;SDS011;7205;50.864;12.766;2023-03-30T13:28:54;4.43;;;1.67;;
14241;SDS011;7205;50.864;12.766;2023-03-30T13:31:34;4.13;;;2.27;;
14241;SDS011;7205;50.864;12.766;2023-03-30T13:34:14;1.60;;;1.50;;
14241;SDS011;7205;50.864;12.766;2023-03-30T13:36:50;2.07;;;1.83;;
14241;SDS011;7205;50.864;12.766;2023-03-30T13:39:25;3.00;;;1.87;;
14241;SDS011;7205;50.864;12.766;2023-03-30T13:42:01;2.90;;;1.57;;
14241;SDS011;7205;50.864;12.766;2023-03-30T13:44:53;3.03;;;1.90;;
14241;SDS011;7205;50.864;12.766;2023-03-30T13:47:30;3.50;;;1.70;;
14241;SDS011;7205;50.864;12.766;2023-03-30T13:50:13;4.13;;;1.70;;
14241;SDS011;7205;50.864;12.766;2023-03-30T13:52:47;6.23;;;1.80;;
14241;SDS011;7205;50.864;12.766;2023-03-30T13:55:16;2.23;;;1.60;;
14241;SDS011;7205;50.864;12.766;2023-03-30T13:57:50;5.63;;;1.77;;
14241;SDS011;7205;50.864;12.766;2023-03-30T14:00:25;3.40;;;1.70;;
14241;SDS011;7205;50.864;12.766;2023-03-30T14:05:58;3.57;;;1.80;;
14241;SDS011;7205;50.864;12.766;2023-03-30T14:08:28;2.97;;;1.70;;
14241;SDS011;7205;50.864;12.766;2023-03-30T14:10:58;4.50;;;1.80;;
14241;SDS011;7205;50.864;12.766;2023-03-30T14:13:26;6.57;;;2.20;;
14241;SDS011;7205;50.864;12.766;2023-03-30T14:15:53;3.70;;;2.20;;
14241;SDS011;7205;50.864;12.766;2023-03-30T14:18:21;2.40;;;1.93;;
14241;SDS011;7205;50.864;12.766;2023-03-30T14:20:50;4.20;;;1.80;;
14241;SDS011;7205;50.864;12.766;2023-03-30T14:23:24;2.63;;;1.97;;
14241;SDS011;7205;50.864;12.766;2023-03-30T14:25:58;4.53;;;2.03;;
14241;SDS011;7205;50.864;12.766;2023-03-30T14:28:25;3.07;;;1.60;;
14241;SDS011;7205;50.864;12.766;2023-03-30T14:30:53;3.43;;;1.40;;
14241;SDS011;7205;50.864;12.766;2023-03-30T14:33:21;2.33;;;1.67;;
14241;SDS011;7205;50.864;12.766;2023-03-30T14:35:49;1.57;;;1.40;;
14241;SDS011;7205;50.864;12.766;2023-03-30T14:38:21;2.47;;;1.70;;
14241;SDS011;7205;50.864;12.766;2023-03-30T14:40:51;3.03;;;1.53;;
14241;SDS011;7205;50.864;12.766;2023-03-30T14:43:20;5.03;;;1.67;;
14241;SDS011;7205;50.864;12.766;2023-03-30T14:45:55;4.53;;;2.00;;
14241;SDS011;7205;50.864;12.766;2023-03-30T14:48:25;2.13;;;1.67;;
14241;SDS011;7205;50.864;12.766;2023-03-30T14:50:55;4.57;;;1.80;;
14241;SDS011;7205;50.864;12.766;2023-03-30T14:53:24;6.17;;;1.80;;
14241;SDS011;7205;50.864;12.766;2023-03-30T14:55:53;2.27;;;1.40;;
14241;SDS011;7205;50.864;12.766;2023-03-30T14:58:22;3.30;;;1.67;;
14241;SDS011;7205;50.864;12.766;2023-03-30T15:00:52;3.13;;;1.50;;
14241;SDS011;7205;50.864;12.766;2023-03-30T15:03:22;3.63;;;1.53;;
14241;SDS011;7205;50.864;12.766;2023-03-30T15:05:52;1.20;;;1.07;;
14241;SDS011;7205;50.864;12.766;2023-03-30T15:08:20;1.17;;;0.77;;
14241;SDS011;7205;50.864;12.766;2023-03-30T15:10:55;1.80;;;0.40;;
14241;SDS011;7205;50.864;12.766;2023-03-30T15:13:23;2.60;;;0.80;;
14241;SDS011;7205;50.864;12.766;2023-03-30T15:15:57;1.27;;;0.50;;
14241;SDS011;7205;50.864;12.766;2023-03-30T15:18:25;2.47;;;0.70;;
14241;SDS011;7205;50.864;12.766;2023-03-30T15:20:53;0.97;;;0.50;;
14241;SDS011;7205;50.864;12.766;2023-03-30T15:23:20;1.17;;;0.40;;
14241;SDS011;7205;50.864;12.766;2023-03-30T15:25:58;3.77;;;0.60;;
14241;SDS011;7205;50.864;12.766;2023-03-30T15:28:29;2.20;;;0.70;;
14241;SDS011;7205;50.864;12.766;2023-03-30T15:30:59;1.37;;;0.60;;
14241;SDS011;7205;50.864;12.766;2023-03-30T15:33:28;0.30;;;0.30;;
14241;SDS011;7205;50.864;12.766;2023-03-30T15:36:02;1.10;;;0.53;;
14241;SDS011;7205;50.864;12.766;2023-03-30T15:38:32;2.03;;;0.73;;
14241;SDS011;7205;50.864;12.766;2023-03-30T15:41:02;0.73;;;0.43;;
14241;SDS011;7205;50.864;12.766;2023-03-30T15:43:50;3.03;;;0.40;;
14241;SDS011;7205;50.864;12.766;2023-03-30T15:46:18;0.50;;;0.50;;
14241;SDS011;7205;50.864;12.766;2023-03-30T15:48:46;4.87;;;0.60;;
14241;SDS011;7205;50.864;12.766;2023-03-30T15:51:15;0.70;;;0.53;;
14241;SDS011;7205;50.864;12.766;2023-03-30T15:53:47;0.70;;;0.70;;